sensor_id;sensor_type;location;lat;lon;timestamp;P1;durP1;ratioP1;P2;durP2;ratioP2
12593;SDS011;6362;50.208;9.182;2022-12-07T00:02:00;25.25;;;12.75;;
12593;SDS011;6362;50.208;9.182;2022-12-07T00:04:26;26.83;;;11.85;;
12593;SDS011;6362;50.208;9.182;2022-12-07T00:06:51;30.98;;;13.65;;
12593;SDS011;6362;50.208;9.182;2022-12-07T00:09:18;26.45;;;12.75;;
12593;SDS011;6362;50.208;9.182;2022-12-07T00:11:44;27.27;;;13.38;;
12593;SDS011;6362;50.208;9.182;2022-12-07T00:14:14;25.90;;;12.88;;
12593;SDS011;6362;50.208;9.182;2022-12-07T00:16:40;26.50;;;13.00;;
12593;SDS011;6362;50.208;9.182;2022-12-07T00:19:06;28.50;;;14.00;;
12593;SDS011;6362;50.208;9.182;2022-12-07T00:21:33;26.85;;;13.15;;
12593;SDS011;6362;50.208;9.182;2022-12-07T00:23:59;26.15;;;12.95;;
12593;SDS011;6362;50.208;9.182;2022-12-07T00:26:27;23.98;;;12.43;;
12593;SDS011;6362;50.208;9.182;2022-12-07T00:28:54;26.15;;;13.18;;
12593;SDS011;6362;50.208;9.182;2022-12-07T00:31:23;23.85;;;12.05;;
12593;SDS011;6362;50.208;9.182;2022-12-07T00:33:50;24.20;;;12.07;;
12593;SDS011;6362;50.208;9.182;2022-12-07T00:36:17;26.75;;;13.85;;
12593;SDS011;6362;50.208;9.182;2022-12-07T00:38:44;30.00;;;14.25;;
12593;SDS011;6362;50.208;9.182;2022-12-07T00:41:11;24.30;;;13.00;;
12593;SDS011;6362;50.208;9.182;2022-12-07T00:43:38;23.45;;;12.43;;
12593;SDS011;6362;50.208;9.182;2022-12-07T00:46:04;27.58;;;13.88;;
12593;SDS011;6362;50.208;9.182;2022-12-07T00:48:30;27.95;;;13.23;;
12593;SDS011;6362;50.208;9.182;2022-12-07T00:50:56;24.73;;;12.40;;
12593;SDS011;6362;50.208;9.182;2022-12-07T00:53:22;27.13;;;13.93;;
12593;SDS011;6362;50.208;9.182;2022-12-07T00:55:47;29.27;;;13.68;;
12593;SDS011;6362;50.208;9.182;2022-12-07T00:58:13;26.10;;;12.75;;
12593;SDS011;6362;50.208;9.182;2022-12-07T01:00:40;28.40;;;13.15;;
12593;SDS011;6362;50.208;9.182;2022-12-07T01:03:07;29.63;;;14.05;;
12593;SDS011;6362;50.208;9.182;2022-12-07T01:05:34;27.27;;;13.45;;
12593;SDS011;6362;50.208;9.182;2022-12-07T01:08:00;26.08;;;14.05;;
12593;SDS011;6362;50.208;9.182;2022-12-07T01:10:25;29.88;;;13.57;;
12593;SDS011;6362;50.208;9.182;2022-12-07T01:12:51;25.20;;;12.32;;
12593;SDS011;6362;50.208;9.182;2022-12-07T01:15:17;26.88;;;13.20;;
12593;SDS011;6362;50.208;9.182;2022-12-07T01:17:42;25.83;;;13.05;;
12593;SDS011;6362;50.208;9.182;2022-12-07T01:20:08;28.10;;;13.18;;
12593;SDS011;6362;50.208;9.182;2022-12-07T01:22:38;26.00;;;13.02;;
12593;SDS011;6362;50.208;9.182;2022-12-07T01:25:05;25.88;;;13.30;;
12593;SDS011;6362;50.208;9.182;2022-12-07T01:27:32;24.45;;;12.15;;
12593;SDS011;6362;50.208;9.182;2022-12-07T01:29:57;24.67;;;12.30;;
12593;SDS011;6362;50.208;9.182;2022-12-07T01:32:23;29.15;;;13.48;;
12593;SDS011;6362;50.208;9.182;2022-12-07T01:34:48;25.77;;;12.02;;
12593;SDS011;6362;50.208;9.182;2022-12-07T01:37:14;27.08;;;12.77;;
12593;SDS011;6362;50.208;9.182;2022-12-07T01:39:39;29.25;;;13.93;;
12593;SDS011;6362;50.208;9.182;2022-12-07T01:42:08;25.63;;;11.25;;
12593;SDS011;6362;50.208;9.182;2022-12-07T01:45:16;26.25;;;12.80;;
12593;SDS011;6362;50.208;9.182;2022-12-07T01:47:58;24.95;;;12.38;;
12593;SDS011;6362;50.208;9.182;2022-12-07T01:50:24;27.95;;;12.85;;
12593;SDS011;6362;50.208;9.182;2022-12-07T01:52:53;28.15;;;14.10;;
12593;SDS011;6362;50.208;9.182;2022-12-07T01:55:20;27.10;;;12.88;;
12593;SDS011;6362;50.208;9.182;2022-12-07T01:57:49;27.73;;;12.85;;
12593;SDS011;6362;50.208;9.182;2022-12-07T02:00:17;30.73;;;14.07;;
12593;SDS011;6362;50.208;9.182;2022-12-07T02:02:44;26.50;;;12.80;;
12593;SDS011;6362;50.208;9.182;2022-12-07T02:05:15;32.55;;;13.70;;
12593;SDS011;6362;50.208;9.182;2022-12-07T02:07:42;29.10;;;13.32;;
12593;SDS011;6362;50.208;9.182;2022-12-07T02:12:46;25.60;;;12.75;;
12593;SDS011;6362;50.208;9.182;2022-12-07T02:15:15;30.77;;;13.65;;
12593;SDS011;6362;50.208;9.182;2022-12-07T02:17:45;30.00;;;14.48;;
12593;SDS011;6362;50.208;9.182;2022-12-07T02:20:34;30.10;;;14.52;;
12593;SDS011;6362;50.208;9.182;2022-12-07T02:29:27;30.55;;;13.75;;
12593;SDS011;6362;50.208;9.182;2022-12-07T02:40:35;32.47;;;14.73;;
12593;SDS011;6362;50.208;9.182;2022-12-07T02:45:37;32.33;;;14.43;;
12593;SDS011;6362;50.208;9.182;2022-12-07T02:48:05;29.80;;;13.73;;
12593;SDS011;6362;50.208;9.182;2022-12-07T02:50:34;32.30;;;14.70;;
12593;SDS011;6362;50.208;9.182;2022-12-07T02:53:00;32.88;;;15.05;;
12593;SDS011;6362;50.208;9.182;2022-12-07T02:55:27;34.97;;;15.77;;
12593;SDS011;6362;50.208;9.182;2022-12-07T03:04:37;32.80;;;13.93;;
12593;SDS011;6362;50.208;9.182;2022-12-07T03:06:47;31.75;;;14.13;;
12593;SDS011;6362;50.208;9.182;2022-12-07T03:09:27;28.23;;;13.45;;
12593;SDS011;6362;50.208;9.182;2022-12-07T03:12:04;27.30;;;12.65;;
12593;SDS011;6362;50.208;9.182;2022-12-07T03:14:32;30.77;;;13.98;;
12593;SDS011;6362;50.208;9.182;2022-12-07T03:17:16;30.23;;;13.63;;
12593;SDS011;6362;50.208;9.182;2022-12-07T03:19:47;28.35;;;13.93;;
12593;SDS011;6362;50.208;9.182;2022-12-07T03:22:16;30.77;;;13.88;;
12593;SDS011;6362;50.208;9.182;2022-12-07T03:24:47;32.45;;;13.43;;
12593;SDS011;6362;50.208;9.182;2022-12-07T03:27:20;30.20;;;13.70;;
12593;SDS011;6362;50.208;9.182;2022-12-07T03:29:50;29.70;;;13.68;;
12593;SDS011;6362;50.208;9.182;2022-12-07T03:32:23;30.20;;;13.10;;
12593;SDS011;6362;50.208;9.182;2022-12-07T03:35:03;30.38;;;13.45;;
12593;SDS011;6362;50.208;9.182;2022-12-07T03:41:03;28.23;;;13.23;;
12593;SDS011;6362;50.208;9.182;2022-12-07T03:43:32;25.85;;;12.13;;
12593;SDS011;6362;50.208;9.182;2022-12-07T03:46:01;27.23;;;12.82;;
12593;SDS011;6362;50.208;9.182;2022-12-07T03:48:38;27.73;;;12.45;;
12593;SDS011;6362;50.208;9.182;2022-12-07T03:51:13;26.27;;;12.30;;
12593;SDS011;6362;50.208;9.182;2022-12-07T03:53:56;28.70;;;13.18;;
12593;SDS011;6362;50.208;9.182;2022-12-07T03:56:26;27.33;;;12.40;;
12593;SDS011;6362;50.208;9.182;2022-12-07T03:58:54;29.42;;;12.77;;
12593;SDS011;6362;50.208;9.182;2022-12-07T04:01:19;29.98;;;13.18;;
12593;SDS011;6362;50.208;9.182;2022-12-07T04:03:45;26.80;;;12.63;;
12593;SDS011;6362;50.208;9.182;2022-12-07T04:06:11;27.60;;;12.07;;
12593;SDS011;6362;50.208;9.182;2022-12-07T04:08:36;27.08;;;12.65;;
12593;SDS011;6362;50.208;9.182;2022-12-07T04:11:01;25.55;;;11.82;;
12593;SDS011;6362;50.208;9.182;2022-12-07T04:13:27;26.38;;;12.10;;
12593;SDS011;6362;50.208;9.182;2022-12-07T04:15:53;28.42;;;12.90;;
12593;SDS011;6362;50.208;9.182;2022-12-07T04:18:18;27.50;;;12.73;;
12593;SDS011;6362;50.208;9.182;2022-12-07T04:20:43;24.08;;;11.15;;
12593;SDS011;6362;50.208;9.182;2022-12-07T04:23:10;24.15;;;11.15;;
12593;SDS011;6362;50.208;9.182;2022-12-07T04:25:35;24.73;;;11.98;;
12593;SDS011;6362;50.208;9.182;2022-12-07T04:28:01;26.45;;;13.15;;
12593;SDS011;6362;50.208;9.182;2022-12-07T04:30:26;25.08;;;11.50;;
12593;SDS011;6362;50.208;9.182;2022-12-07T04:32:52;25.83;;;12.93;;
12593;SDS011;6362;50.208;9.182;2022-12-07T04:35:17;23.98;;;11.07;;
12593;SDS011;6362;50.208;9.182;2022-12-07T04:37:43;28.05;;;12.45;;
12593;SDS011;6362;50.208;9.182;2022-12-07T04:40:08;26.70;;;11.82;;
12593;SDS011;6362;50.208;9.182;2022-12-07T04:42:36;24.05;;;11.40;;
12593;SDS011;6362;50.208;9.182;2022-12-07T04:45:02;26.50;;;12.20;;
12593;SDS011;6362;50.208;9.182;2022-12-07T04:47:27;30.27;;;13.15;;
12593;SDS011;6362;50.208;9.182;2022-12-07T04:49:53;24.67;;;11.35;;
12593;SDS011;6362;50.208;9.182;2022-12-07T04:52:18;22.27;;;10.82;;
12593;SDS011;6362;50.208;9.182;2022-12-07T04:54:44;24.85;;;10.73;;
12593;SDS011;6362;50.208;9.182;2022-12-07T04:57:09;23.92;;;11.38;;
12593;SDS011;6362;50.208;9.182;2022-12-07T04:59:35;23.10;;;11.30;;
12593;SDS011;6362;50.208;9.182;2022-12-07T05:02:00;23.67;;;11.48;;
12593;SDS011;6362;50.208;9.182;2022-12-07T05:04:25;26.27;;;12.23;;
12593;SDS011;6362;50.208;9.182;2022-12-07T05:06:51;27.85;;;11.00;;
12593;SDS011;6362;50.208;9.182;2022-12-07T05:09:16;24.02;;;11.13;;
12593;SDS011;6362;50.208;9.182;2022-12-07T05:11:42;21.73;;;11.02;;
12593;SDS011;6362;50.208;9.182;2022-12-07T05:16:38;22.95;;;11.23;;
12593;SDS011;6362;50.208;9.182;2022-12-07T05:19:04;26.42;;;11.18;;
12593;SDS011;6362;50.208;9.182;2022-12-07T05:21:30;24.15;;;11.40;;
12593;SDS011;6362;50.208;9.182;2022-12-07T05:23:56;23.45;;;11.50;;
12593;SDS011;6362;50.208;9.182;2022-12-07T05:26:22;22.48;;;10.20;;
12593;SDS011;6362;50.208;9.182;2022-12-07T05:28:54;24.83;;;11.00;;
12593;SDS011;6362;50.208;9.182;2022-12-07T05:31:20;18.80;;;8.52;;
12593;SDS011;6362;50.208;9.182;2022-12-07T05:33:47;27.02;;;11.35;;
12593;SDS011;6362;50.208;9.182;2022-12-07T05:36:12;24.58;;;11.25;;
12593;SDS011;6362;50.208;9.182;2022-12-07T05:38:38;21.80;;;10.88;;
12593;SDS011;6362;50.208;9.182;2022-12-07T05:41:04;25.45;;;11.27;;
12593;SDS011;6362;50.208;9.182;2022-12-07T05:43:31;24.40;;;11.43;;
12593;SDS011;6362;50.208;9.182;2022-12-07T05:45:57;26.17;;;12.23;;
12593;SDS011;6362;50.208;9.182;2022-12-07T05:48:23;27.77;;;12.85;;
12593;SDS011;6362;50.208;9.182;2022-12-07T05:50:49;25.15;;;10.65;;
12593;SDS011;6362;50.208;9.182;2022-12-07T05:53:15;23.88;;;11.27;;
12593;SDS011;6362;50.208;9.182;2022-12-07T05:55:41;21.20;;;10.00;;
12593;SDS011;6362;50.208;9.182;2022-12-07T05:58:07;22.05;;;10.50;;
12593;SDS011;6362;50.208;9.182;2022-12-07T06:03:16;24.50;;;11.32;;
12593;SDS011;6362;50.208;9.182;2022-12-07T06:05:41;29.17;;;10.90;;
12593;SDS011;6362;50.208;9.182;2022-12-07T06:08:07;23.98;;;11.05;;
12593;SDS011;6362;50.208;9.182;2022-12-07T06:10:32;24.17;;;11.05;;
12593;SDS011;6362;50.208;9.182;2022-12-07T06:12:58;36.65;;;12.23;;
12593;SDS011;6362;50.208;9.182;2022-12-07T06:15:24;22.48;;;10.32;;
12593;SDS011;6362;50.208;9.182;2022-12-07T06:17:49;22.60;;;11.15;;
12593;SDS011;6362;50.208;9.182;2022-12-07T06:20:15;22.70;;;11.13;;
12593;SDS011;6362;50.208;9.182;2022-12-07T06:22:40;23.48;;;10.82;;
12593;SDS011;6362;50.208;9.182;2022-12-07T06:25:06;22.45;;;10.10;;
12593;SDS011;6362;50.208;9.182;2022-12-07T06:27:32;22.05;;;10.35;;
12593;SDS011;6362;50.208;9.182;2022-12-07T06:29:57;28.83;;;11.68;;
12593;SDS011;6362;50.208;9.182;2022-12-07T06:32:23;23.52;;;11.32;;
12593;SDS011;6362;50.208;9.182;2022-12-07T06:34:48;23.67;;;11.73;;
12593;SDS011;6362;50.208;9.182;2022-12-07T06:37:14;22.67;;;11.38;;
12593;SDS011;6362;50.208;9.182;2022-12-07T06:39:39;28.48;;;11.63;;
12593;SDS011;6362;50.208;9.182;2022-12-07T06:42:05;23.00;;;11.43;;
12593;SDS011;6362;50.208;9.182;2022-12-07T06:44:30;21.73;;;10.48;;
12593;SDS011;6362;50.208;9.182;2022-12-07T06:46:55;18.73;;;9.60;;
12593;SDS011;6362;50.208;9.182;2022-12-07T06:49:21;17.45;;;8.95;;
12593;SDS011;6362;50.208;9.182;2022-12-07T06:51:46;21.42;;;8.05;;
12593;SDS011;6362;50.208;9.182;2022-12-07T06:54:13;18.92;;;9.07;;
12593;SDS011;6362;50.208;9.182;2022-12-07T06:56:39;18.00;;;8.98;;
12593;SDS011;6362;50.208;9.182;2022-12-07T06:59:05;19.40;;;9.23;;
12593;SDS011;6362;50.208;9.182;2022-12-07T07:01:32;17.02;;;8.65;;
12593;SDS011;6362;50.208;9.182;2022-12-07T07:03:59;20.83;;;9.93;;
12593;SDS011;6362;50.208;9.182;2022-12-07T07:06:24;23.23;;;10.10;;
12593;SDS011;6362;50.208;9.182;2022-12-07T07:08:50;20.85;;;9.73;;
12593;SDS011;6362;50.208;9.182;2022-12-07T07:11:15;18.42;;;8.98;;
12593;SDS011;6362;50.208;9.182;2022-12-07T07:13:41;18.75;;;9.18;;
12593;SDS011;6362;50.208;9.182;2022-12-07T07:16:06;24.45;;;12.43;;
12593;SDS011;6362;50.208;9.182;2022-12-07T07:18:32;24.35;;;11.95;;
12593;SDS011;6362;50.208;9.182;2022-12-07T07:20:58;22.25;;;11.30;;
12593;SDS011;6362;50.208;9.182;2022-12-07T07:23:23;22.40;;;10.65;;
12593;SDS011;6362;50.208;9.182;2022-12-07T07:25:49;21.20;;;10.50;;
12593;SDS011;6362;50.208;9.182;2022-12-07T07:28:15;24.02;;;9.75;;
12593;SDS011;6362;50.208;9.182;2022-12-07T07:30:41;22.02;;;10.05;;
12593;SDS011;6362;50.208;9.182;2022-12-07T07:33:06;18.50;;;9.15;;
12593;SDS011;6362;50.208;9.182;2022-12-07T07:35:32;20.77;;;9.55;;
12593;SDS011;6362;50.208;9.182;2022-12-07T07:37:59;19.23;;;8.95;;
12593;SDS011;6362;50.208;9.182;2022-12-07T07:40:25;18.75;;;8.90;;
12593;SDS011;6362;50.208;9.182;2022-12-07T07:42:51;21.25;;;9.20;;
12593;SDS011;6362;50.208;9.182;2022-12-07T07:45:18;16.85;;;8.85;;
12593;SDS011;6362;50.208;9.182;2022-12-07T07:47:45;21.45;;;10.43;;
12593;SDS011;6362;50.208;9.182;2022-12-07T07:50:10;21.60;;;10.82;;
12593;SDS011;6362;50.208;9.182;2022-12-07T07:52:36;22.05;;;10.43;;
12593;SDS011;6362;50.208;9.182;2022-12-07T07:55:01;19.70;;;9.95;;
12593;SDS011;6362;50.208;9.182;2022-12-07T07:57:27;21.40;;;10.60;;
12593;SDS011;6362;50.208;9.182;2022-12-07T07:59:53;22.38;;;10.25;;
12593;SDS011;6362;50.208;9.182;2022-12-07T08:02:19;20.15;;;9.93;;
12593;SDS011;6362;50.208;9.182;2022-12-07T08:04:45;21.23;;;10.35;;
12593;SDS011;6362;50.208;9.182;2022-12-07T08:07:11;23.52;;;10.57;;
12593;SDS011;6362;50.208;9.182;2022-12-07T08:09:38;20.92;;;10.27;;
12593;SDS011;6362;50.208;9.182;2022-12-07T08:12:04;20.70;;;10.25;;
12593;SDS011;6362;50.208;9.182;2022-12-07T08:14:30;23.10;;;10.55;;
12593;SDS011;6362;50.208;9.182;2022-12-07T08:16:55;20.38;;;10.02;;
12593;SDS011;6362;50.208;9.182;2022-12-07T08:19:21;22.35;;;10.63;;
12593;SDS011;6362;50.208;9.182;2022-12-07T08:21:47;20.92;;;9.88;;
12593;SDS011;6362;50.208;9.182;2022-12-07T08:24:12;22.33;;;10.05;;
12593;SDS011;6362;50.208;9.182;2022-12-07T08:26:38;19.70;;;10.85;;
12593;SDS011;6362;50.208;9.182;2022-12-07T08:29:03;24.73;;;11.18;;
12593;SDS011;6362;50.208;9.182;2022-12-07T08:31:29;22.58;;;10.52;;
12593;SDS011;6362;50.208;9.182;2022-12-07T08:33:54;21.20;;;9.63;;
12593;SDS011;6362;50.208;9.182;2022-12-07T08:36:20;23.30;;;10.82;;
12593;SDS011;6362;50.208;9.182;2022-12-07T08:38:47;24.30;;;11.07;;
12593;SDS011;6362;50.208;9.182;2022-12-07T08:41:13;21.45;;;10.63;;
12593;SDS011;6362;50.208;9.182;2022-12-07T08:43:39;25.55;;;10.93;;
12593;SDS011;6362;50.208;9.182;2022-12-07T08:48:43;17.40;;;9.63;;
12593;SDS011;6362;50.208;9.182;2022-12-07T08:51:21;21.55;;;10.95;;
12593;SDS011;6362;50.208;9.182;2022-12-07T08:53:48;21.63;;;10.98;;
12593;SDS011;6362;50.208;9.182;2022-12-07T08:56:14;21.70;;;9.88;;
12593;SDS011;6362;50.208;9.182;2022-12-07T08:58:40;20.48;;;10.43;;
12593;SDS011;6362;50.208;9.182;2022-12-07T09:01:06;20.77;;;10.07;;
12593;SDS011;6362;50.208;9.182;2022-12-07T09:03:32;26.38;;;11.55;;
12593;SDS011;6362;50.208;9.182;2022-12-07T09:05:57;22.17;;;11.30;;
12593;SDS011;6362;50.208;9.182;2022-12-07T09:08:25;24.67;;;11.57;;
12593;SDS011;6362;50.208;9.182;2022-12-07T09:10:54;26.92;;;11.60;;
12593;SDS011;6362;50.208;9.182;2022-12-07T09:13:19;26.05;;;11.73;;
12593;SDS011;6362;50.208;9.182;2022-12-07T09:15:45;21.65;;;10.70;;
12593;SDS011;6362;50.208;9.182;2022-12-07T09:18:10;22.85;;;10.77;;
12593;SDS011;6362;50.208;9.182;2022-12-07T09:20:35;25.70;;;10.98;;
12593;SDS011;6362;50.208;9.182;2022-12-07T09:23:01;21.65;;;11.40;;
12593;SDS011;6362;50.208;9.182;2022-12-07T09:25:26;23.05;;;11.30;;
12593;SDS011;6362;50.208;9.182;2022-12-07T09:27:55;21.90;;;10.43;;
12593;SDS011;6362;50.208;9.182;2022-12-07T09:30:22;24.88;;;11.45;;
12593;SDS011;6362;50.208;9.182;2022-12-07T09:32:47;20.55;;;10.13;;
12593;SDS011;6362;50.208;9.182;2022-12-07T09:35:12;22.60;;;11.18;;
12593;SDS011;6362;50.208;9.182;2022-12-07T09:37:38;20.90;;;10.77;;
12593;SDS011;6362;50.208;9.182;2022-12-07T09:40:03;20.65;;;10.35;;
12593;SDS011;6362;50.208;9.182;2022-12-07T09:44:59;22.42;;;11.07;;
12593;SDS011;6362;50.208;9.182;2022-12-07T09:47:25;23.73;;;11.80;;
12593;SDS011;6362;50.208;9.182;2022-12-07T09:49:52;22.20;;;10.73;;
12593;SDS011;6362;50.208;9.182;2022-12-07T09:52:25;20.63;;;10.98;;
12593;SDS011;6362;50.208;9.182;2022-12-07T09:54:53;20.75;;;10.07;;
12593;SDS011;6362;50.208;9.182;2022-12-07T09:57:20;21.80;;;10.63;;
12593;SDS011;6362;50.208;9.182;2022-12-07T09:59:57;20.75;;;10.55;;
12593;SDS011;6362;50.208;9.182;2022-12-07T10:05:12;21.50;;;11.50;;
12593;SDS011;6362;50.208;9.182;2022-12-07T10:07:40;19.45;;;10.75;;
12593;SDS011;6362;50.208;9.182;2022-12-07T10:10:09;23.58;;;11.70;;
12593;SDS011;6362;50.208;9.182;2022-12-07T10:12:55;21.77;;;10.80;;
12593;SDS011;6362;50.208;9.182;2022-12-07T10:21:10;19.00;;;9.82;;
12593;SDS011;6362;50.208;9.182;2022-12-07T10:23:36;21.73;;;10.10;;
12593;SDS011;6362;50.208;9.182;2022-12-07T10:26:19;18.75;;;9.88;;
12593;SDS011;6362;50.208;9.182;2022-12-07T10:28:50;20.48;;;10.98;;
12593;SDS011;6362;50.208;9.182;2022-12-07T10:31:16;22.02;;;10.55;;
12593;SDS011;6362;50.208;9.182;2022-12-07T10:34:12;20.98;;;10.95;;
12593;SDS011;6362;50.208;9.182;2022-12-07T10:36:40;20.08;;;10.15;;
12593;SDS011;6362;50.208;9.182;2022-12-07T10:39:16;20.77;;;10.00;;
12593;SDS011;6362;50.208;9.182;2022-12-07T10:44:24;20.65;;;9.68;;
12593;SDS011;6362;50.208;9.182;2022-12-07T10:47:06;21.50;;;9.73;;
12593;SDS011;6362;50.208;9.182;2022-12-07T11:00:25;19.83;;;9.43;;
12593;SDS011;6362;50.208;9.182;2022-12-07T11:03:06;16.20;;;8.63;;
12593;SDS011;6362;50.208;9.182;2022-12-07T11:13:49;20.25;;;10.10;;
12593;SDS011;6362;50.208;9.182;2022-12-07T11:23:10;15.90;;;8.82;;
12593;SDS011;6362;50.208;9.182;2022-12-07T11:25:35;15.80;;;8.48;;
12593;SDS011;6362;50.208;9.182;2022-12-07T11:36:13;17.85;;;6.70;;
12593;SDS011;6362;50.208;9.182;2022-12-07T11:38:49;14.07;;;5.75;;
12593;SDS011;6362;50.208;9.182;2022-12-07T11:41:26;10.13;;;3.90;;
12593;SDS011;6362;50.208;9.182;2022-12-07T11:44:16;11.38;;;3.33;;
12593;SDS011;6362;50.208;9.182;2022-12-07T11:47:07;7.43;;;3.35;;
12593;SDS011;6362;50.208;9.182;2022-12-07T11:49:47;12.23;;;3.40;;
12593;SDS011;6362;50.208;9.182;2022-12-07T11:54:55;13.60;;;3.63;;
12593;SDS011;6362;50.208;9.182;2022-12-07T11:57:42;9.25;;;3.05;;
12593;SDS011;6362;50.208;9.182;2022-12-07T12:00:15;9.07;;;3.17;;
12593;SDS011;6362;50.208;9.182;2022-12-07T12:05:36;7.72;;;2.53;;
12593;SDS011;6362;50.208;9.182;2022-12-07T12:08:15;6.97;;;2.78;;
12593;SDS011;6362;50.208;9.182;2022-12-07T12:22:13;6.50;;;2.38;;
12593;SDS011;6362;50.208;9.182;2022-12-07T12:24:43;5.63;;;2.15;;
12593;SDS011;6362;50.208;9.182;2022-12-07T12:27:31;7.53;;;2.55;;
12593;SDS011;6362;50.208;9.182;2022-12-07T12:30:01;7.75;;;2.35;;
12593;SDS011;6362;50.208;9.182;2022-12-07T12:32:36;7.20;;;2.13;;
12593;SDS011;6362;50.208;9.182;2022-12-07T12:37:52;5.85;;;2.22;;
12593;SDS011;6362;50.208;9.182;2022-12-07T12:50:21;6.40;;;2.25;;
12593;SDS011;6362;50.208;9.182;2022-12-07T12:55:27;5.30;;;2.40;;
12593;SDS011;6362;50.208;9.182;2022-12-07T13:00:43;8.60;;;2.25;;
12593;SDS011;6362;50.208;9.182;2022-12-07T13:03:21;6.55;;;2.25;;
12593;SDS011;6362;50.208;9.182;2022-12-07T13:06:06;9.63;;;2.20;;
12593;SDS011;6362;50.208;9.182;2022-12-07T13:11:43;15.10;;;2.97;;
12593;SDS011;6362;50.208;9.182;2022-12-07T13:17:05;5.65;;;1.98;;
12593;SDS011;6362;50.208;9.182;2022-12-07T13:20:39;4.88;;;1.80;;
12593;SDS011;6362;50.208;9.182;2022-12-07T13:27:42;6.43;;;2.30;;
12593;SDS011;6362;50.208;9.182;2022-12-07T13:30:17;6.78;;;2.00;;
12593;SDS011;6362;50.208;9.182;2022-12-07T13:32:51;5.22;;;2.00;;
12593;SDS011;6362;50.208;9.182;2022-12-07T13:35:42;6.78;;;3.63;;
12593;SDS011;6362;50.208;9.182;2022-12-07T13:41:16;10.07;;;2.60;;
12593;SDS011;6362;50.208;9.182;2022-12-07T13:43:45;7.60;;;2.00;;
12593;SDS011;6362;50.208;9.182;2022-12-07T13:46:13;8.65;;;2.47;;
12593;SDS011;6362;50.208;9.182;2022-12-07T13:48:48;7.93;;;1.90;;
12593;SDS011;6362;50.208;9.182;2022-12-07T13:51:22;8.07;;;2.30;;
12593;SDS011;6362;50.208;9.182;2022-12-07T13:53:51;7.00;;;1.90;;
12593;SDS011;6362;50.208;9.182;2022-12-07T13:56:21;6.72;;;1.90;;
12593;SDS011;6362;50.208;9.182;2022-12-07T13:58:51;9.65;;;2.97;;
12593;SDS011;6362;50.208;9.182;2022-12-07T14:01:16;10.50;;;2.35;;
12593;SDS011;6362;50.208;9.182;2022-12-07T14:03:43;5.88;;;2.03;;
12593;SDS011;6362;50.208;9.182;2022-12-07T14:06:16;7.63;;;1.55;;
12593;SDS011;6362;50.208;9.182;2022-12-07T14:08:44;4.85;;;1.63;;
12593;SDS011;6362;50.208;9.182;2022-12-07T14:11:15;3.22;;;1.17;;
12593;SDS011;6362;50.208;9.182;2022-12-07T14:13:50;2.92;;;1.05;;
12593;SDS011;6362;50.208;9.182;2022-12-07T14:18:46;3.78;;;1.50;;
12593;SDS011;6362;50.208;9.182;2022-12-07T14:23:38;4.63;;;1.30;;
12593;SDS011;6362;50.208;9.182;2022-12-07T14:26:05;5.88;;;1.60;;
12593;SDS011;6362;50.208;9.182;2022-12-07T14:28:36;3.20;;;1.38;;
12593;SDS011;6362;50.208;9.182;2022-12-07T14:31:02;3.47;;;1.50;;
12593;SDS011;6362;50.208;9.182;2022-12-07T14:33:28;4.43;;;1.58;;
12593;SDS011;6362;50.208;9.182;2022-12-07T14:35:55;4.30;;;1.75;;
12593;SDS011;6362;50.208;9.182;2022-12-07T14:38:22;7.53;;;2.40;;
12593;SDS011;6362;50.208;9.182;2022-12-07T14:40:49;6.55;;;2.22;;
12593;SDS011;6362;50.208;9.182;2022-12-07T14:43:16;5.00;;;1.67;;
12593;SDS011;6362;50.208;9.182;2022-12-07T14:45:43;5.15;;;2.03;;
12593;SDS011;6362;50.208;9.182;2022-12-07T14:48:13;5.93;;;2.50;;
12593;SDS011;6362;50.208;9.182;2022-12-07T14:50:44;6.00;;;2.80;;
12593;SDS011;6362;50.208;9.182;2022-12-07T14:53:14;7.82;;;3.00;;
12593;SDS011;6362;50.208;9.182;2022-12-07T14:55:41;5.72;;;3.00;;
12593;SDS011;6362;50.208;9.182;2022-12-07T14:58:13;7.65;;;3.20;;
12593;SDS011;6362;50.208;9.182;2022-12-07T15:00:40;7.90;;;2.88;;
12593;SDS011;6362;50.208;9.182;2022-12-07T15:03:06;5.65;;;2.65;;
12593;SDS011;6362;50.208;9.182;2022-12-07T15:05:32;6.20;;;2.65;;
12593;SDS011;6362;50.208;9.182;2022-12-07T15:07:58;6.40;;;3.10;;
12593;SDS011;6362;50.208;9.182;2022-12-07T15:10:25;8.43;;;4.03;;
12593;SDS011;6362;50.208;9.182;2022-12-07T15:12:55;6.85;;;3.13;;
12593;SDS011;6362;50.208;9.182;2022-12-07T15:15:40;9.23;;;3.05;;
12593;SDS011;6362;50.208;9.182;2022-12-07T15:18:06;7.70;;;3.28;;
12593;SDS011;6362;50.208;9.182;2022-12-07T15:20:31;8.95;;;3.58;;
12593;SDS011;6362;50.208;9.182;2022-12-07T15:22:57;11.07;;;4.40;;
12593;SDS011;6362;50.208;9.182;2022-12-07T15:25:22;10.48;;;4.50;;
12593;SDS011;6362;50.208;9.182;2022-12-07T15:27:48;10.80;;;4.50;;
12593;SDS011;6362;50.208;9.182;2022-12-07T15:30:13;11.70;;;5.20;;
12593;SDS011;6362;50.208;9.182;2022-12-07T15:32:39;11.02;;;5.95;;
12593;SDS011;6362;50.208;9.182;2022-12-07T15:35:04;13.57;;;6.90;;
12593;SDS011;6362;50.208;9.182;2022-12-07T15:37:30;11.75;;;5.82;;
12593;SDS011;6362;50.208;9.182;2022-12-07T15:39:55;14.82;;;5.72;;
12593;SDS011;6362;50.208;9.182;2022-12-07T15:42:21;9.48;;;4.50;;
12593;SDS011;6362;50.208;9.182;2022-12-07T15:44:46;10.68;;;5.97;;
12593;SDS011;6362;50.208;9.182;2022-12-07T15:49:56;14.20;;;5.53;;
12593;SDS011;6362;50.208;9.182;2022-12-07T15:52:22;14.00;;;6.65;;
12593;SDS011;6362;50.208;9.182;2022-12-07T15:54:47;10.70;;;5.65;;
12593;SDS011;6362;50.208;9.182;2022-12-07T15:57:13;13.18;;;6.38;;
12593;SDS011;6362;50.208;9.182;2022-12-07T15:59:39;17.27;;;9.32;;
12593;SDS011;6362;50.208;9.182;2022-12-07T16:02:04;16.85;;;8.82;;
12593;SDS011;6362;50.208;9.182;2022-12-07T16:04:29;13.70;;;7.60;;
12593;SDS011;6362;50.208;9.182;2022-12-07T16:06:55;13.95;;;7.30;;
12593;SDS011;6362;50.208;9.182;2022-12-07T16:09:21;17.83;;;8.02;;
12593;SDS011;6362;50.208;9.182;2022-12-07T16:11:46;13.68;;;7.50;;
12593;SDS011;6362;50.208;9.182;2022-12-07T16:14:12;13.40;;;7.40;;
12593;SDS011;6362;50.208;9.182;2022-12-07T16:16:38;91.32;;;57.17;;
12593;SDS011;6362;50.208;9.182;2022-12-07T16:19:05;23.10;;;14.48;;
12593;SDS011;6362;50.208;9.182;2022-12-07T16:21:31;16.08;;;8.38;;
12593;SDS011;6362;50.208;9.182;2022-12-07T16:23:59;16.77;;;9.90;;
12593;SDS011;6362;50.208;9.182;2022-12-07T16:26:25;17.63;;;9.20;;
12593;SDS011;6362;50.208;9.182;2022-12-07T16:28:51;14.85;;;8.70;;
12593;SDS011;6362;50.208;9.182;2022-12-07T16:31:18;14.90;;;8.20;;
12593;SDS011;6362;50.208;9.182;2022-12-07T16:33:46;15.50;;;7.22;;
12593;SDS011;6362;50.208;9.182;2022-12-07T16:36:13;13.38;;;7.30;;
12593;SDS011;6362;50.208;9.182;2022-12-07T16:38:41;18.83;;;8.25;;
12593;SDS011;6362;50.208;9.182;2022-12-07T16:41:06;16.52;;;9.05;;
12593;SDS011;6362;50.208;9.182;2022-12-07T16:43:32;19.85;;;10.30;;
12593;SDS011;6362;50.208;9.182;2022-12-07T16:45:58;16.25;;;9.10;;
12593;SDS011;6362;50.208;9.182;2022-12-07T16:48:24;16.45;;;9.32;;
12593;SDS011;6362;50.208;9.182;2022-12-07T16:50:49;18.33;;;7.70;;
12593;SDS011;6362;50.208;9.182;2022-12-07T16:53:15;16.10;;;7.78;;
12593;SDS011;6362;50.208;9.182;2022-12-07T16:55:44;18.75;;;9.93;;
12593;SDS011;6362;50.208;9.182;2022-12-07T16:58:13;16.27;;;9.40;;
12593;SDS011;6362;50.208;9.182;2022-12-07T17:00:41;19.05;;;11.38;;
12593;SDS011;6362;50.208;9.182;2022-12-07T17:03:07;16.90;;;8.70;;
12593;SDS011;6362;50.208;9.182;2022-12-07T17:05:33;13.98;;;7.32;;
12593;SDS011;6362;50.208;9.182;2022-12-07T17:08:01;17.83;;;8.90;;
12593;SDS011;6362;50.208;9.182;2022-12-07T17:10:28;14.55;;;7.70;;